Flight Track Log - Related Links

Times and Time Zones

All times are in EDT time to prevent confusion due to time zone crossing. See the UPS106 flight status page for this flight to view local times or setup timezone preferences in your user account.

Time Position Orientation Groundspeed Altitude Reporting Facility
EDT Latitude Longitude Course Direction KTS MPH feet Rate Location/Type
Wed 08:15:21 PM 38.1880 -85.7320 347° North 165 190 1,100  Level FlightAware ADS-B
Wed 08:15:45 PM 38.2060 -85.7380 345° North 163 188 2,300 2,182 Climbing FlightAware ADS-B
Wed 08:16:05 PM 38.2220 -85.7430 346° North 198 228 2,700 1,200 Climbing FlightAware ADS-B
Wed 08:16:25 PM 38.2400 -85.7490 345° North 225 259 3,100 1,615 Climbing FlightAware ADS-B
Wed 08:16:31 PM 38.2470 -85.7500 354° North 232 267 3,400 2,571 Climbing FlightAware ADS-B
Wed 08:16:53 PM 38.2700 -85.7370 24° Northeast 265 305 4,300 2,400 Climbing FlightAware ADS-B
Wed 08:17:01 PM 38.2760 -85.7270 53° Northeast 276 318 4,600 3,214 Climbing FlightAware ADS-B
Wed 08:17:21 PM 38.2890 -85.6990 59° Northeast 278 320 5,800 3,429 Climbing FlightAware ADS-B
Wed 08:17:29 PM 38.2930 -85.6860 69° East 287 330 6,200 2,625 Climbing FlightAware ADS-B
Wed 08:17:37 PM 38.2940 -85.6730 84° East 295 339 6,500 3,000 Climbing FlightAware ADS-B
Wed 08:17:57 PM 38.2870 -85.6390 105° East 307 353 7,600 3,000 Climbing FlightAware ADS-B
Wed 08:18:05 PM 38.2800 -85.6270 127° Southeast 314 361 7,900 2,700 Climbing FlightAware ADS-B
Wed 08:18:17 PM 38.2670 -85.6130 140° Southeast 317 365 8,500 3,000 Climbing FlightAware ADS-B
Wed 08:18:37 PM 38.2440 -85.5900 142° Southeast 319 367 9,500 2,750 Climbing FlightAware ADS-B
Wed 08:19:05 PM 38.2110 -85.5570 142° Southeast 333 383 10,700 2,031 Climbing FlightAware ADS-B
Wed 08:19:42 PM 38.1640 -85.5100 142° Southeast 378 435 11,700 2,167 Climbing FlightAware ADS-B
Wed 08:20:17 PM 38.1130 -85.4570 141° Southeast 402 463 13,300 3,048 Climbing FlightAware ADS-B
Wed 08:20:45 PM 38.0880 -85.4010 120° Southeast 401 461 14,900 3,097 Climbing FlightAware ADS-B
Wed 08:21:19 PM 38.0750 -85.3200 101° East 415 478 16,500 2,914 Climbing FlightAware ADS-B
Wed 08:21:55 PM 38.0630 -85.2310 100° East 427 491 18,300 2,917 Climbing FlightAware ADS-B
Wed 08:22:31 PM 38.0520 -85.1430 99° East 438 504 20,000 2,833 Climbing FlightAware ADS-B
Wed 08:23:07 PM 38.0390 -85.0500 100° East 446 513 21,700 2,522 Climbing FlightAware ADS-B
Wed 08:23:40 PM 38.0290 -84.9650 98° East 457 526 22,900 1,944 Climbing FlightAware ADS-B
Wed 08:24:18 PM 38.0160 -84.8630 99° East 459 528 24,000 1,971 Climbing FlightAware ADS-B
Wed 08:24:50 PM 38.0060 -84.7790 99° East 470 541 25,200 2,273 Climbing FlightAware ADS-B
Wed 08:25:24 PM 37.9940 -84.6870 99° East 479 551 26,500 2,282 Climbing FlightAware ADS-B
Wed 08:26:01 PM 37.9810 -84.5820 99° East 487 560 27,900 2,250 Climbing FlightAware ADS-B
Wed 08:26:36 PM 37.9688 -84.4801 99° East 492 566 29,200 1,917 Climbing FlightAware ADS-B
Wed 08:27:13 PM 37.9623 -84.3733 94° East 495 570 30,200 2,108 Climbing FlightAware ADS-B
Wed 08:27:50 PM 37.9576 -84.2662 93° East 502 578 31,800 2,328 Climbing FlightAware ADS-B
Wed 08:28:20 PM 37.9540 -84.1850 93° East 486 559 32,800 1,161 Climbing FlightAware ADS-B
Wed 08:28:52 PM 37.9500 -84.0910 93° East 490 564 33,000 235 Climbing FlightAware ADS-B
Wed 08:29:11 PM 37.9477 -84.0336 93° East 493 567 33,000  Level FlightAware ADS-B
Wed 08:30:08 PM 37.9400 -83.8760 93° East 490 564 33,000  Level FlightAware ADS-B
Wed 08:30:40 PM 37.9360 -83.7800 93° East 487 560 33,000  Level FlightAware ADS-B
Wed 08:31:14 PM 37.9310 -83.6860 94° East 485 558 33,000  Level FlightAware ADS-B
Wed 08:31:46 PM 37.9270 -83.5920 93° East 483 556 33,000  Level FlightAware ADS-B
Wed 08:32:28 PM 37.9210 -83.4750 94° East 482 555 33,000  Level FlightAware ADS-B
Wed 08:33:00 PM 37.9160 -83.3850 94° East 485 558 33,000  Level FlightAware ADS-B
Wed 08:33:15 PM 37.9075 -83.3417 104° East 489 563 33,000  Level FlightAware ADS-B
Wed 08:33:44 PM 37.8907 -83.2610 105° East 487 560 33,000  Level FlightAware ADS-B
Wed 08:34:44 PM 37.8600 -83.0970 103° East 486 559 33,000  Level FlightAware ADS-B
Wed 08:35:20 PM 37.8440 -82.9970 101° East 489 563 33,000  Level FlightAware ADS-B
Wed 08:35:56 PM 37.8300 -82.8950 100° East 491 565 33,000  Level FlightAware ADS-B
Wed 08:36:20 PM 37.8217 -82.8249 99° East 494 568 33,000  Level FlightAware ADS-B
Wed 08:36:55 PM 37.8113 -82.7250 97° East 494 568 33,000  Level FlightAware ADS-B
Wed 08:37:26 PM 37.8034 -82.6378 97° East 490 564 33,000  Level FlightAware ADS-B
Wed 08:37:51 PM 37.7973 -82.5656 96° East 483 556 33,000  Level FlightAware ADS-B
Wed 08:38:22 PM 37.7920 -82.4816 95° East 481 554 33,000  Level FlightAware ADS-B
Wed 08:38:52 PM 37.7865 -82.3973 95° East 483 556 33,000  Level FlightAware ADS-B
Wed 08:39:28 PM 37.7803 -82.2945 94° East 480 552 33,000  Level FlightAware ADS-B
Wed 08:40:00 PM 37.7772 -82.2060 93° East 472 543 33,000  Level FlightAware ADS-B
Wed 08:40:31 PM 37.7756 -82.1219 91° East 471 542 33,000  Level FlightAware ADS-B
Wed 08:40:47 PM 37.7781 -82.0784 86° East 466 536 33,000  Level FlightAware ADS-B
Wed 08:41:17 PM 37.7875 -81.9969 82° East 465 535 33,000  Level FlightAware ADS-B
Wed 08:42:07 PM 37.8150 -81.8670 75° East 467 537 33,000  Level FlightAware ADS-B
Wed 08:42:30 PM 37.8269 -81.8045 76° East 468 539 33,000  Level FlightAware ADS-B
Wed 08:43:18 PM 37.8513 -81.6782 76° East 470 541 33,000  Level FlightAware ADS-B
Wed 08:43:51 PM 37.8600 -81.5880 83° East 471 542 33,000  Level FlightAware ADS-B
Wed 08:44:27 PM 37.8660 -81.4890 86° East 469 540 33,000  Level FlightAware ADS-B
Wed 08:45:03 PM 37.8730 -81.3930 85° East 469 540 33,000  Level FlightAware ADS-B
Wed 08:45:36 PM 37.8780 -81.3020 86° East 469 540 33,000  Level FlightAware ADS-B
Wed 08:46:10 PM 37.8840 -81.2130 85° East 469 540 33,000  Level FlightAware ADS-B
Wed 08:47:02 PM 37.8910 -81.0700 86° East 471 542 33,000  Level FlightAware ADS-B
Wed 08:47:40 PM 37.8960 -80.9810 86° East 471 542 33,000  Level FlightAware ADS-B
Wed 08:48:16 PM 37.9010 -80.8970 86° East 471 542 33,000  Level FlightAware ADS-B
Wed 08:48:59 PM 37.9080 -80.7430 87° East 474 545 33,000  Level FlightAware ADS-B
Wed 08:49:35 PM 37.9140 -80.6440 86° East 474 545 33,000  Level FlightAware ADS-B
Wed 08:50:10 PM 37.9180 -80.5520 87° East 476 548 33,000  Level FlightAware ADS-B
Wed 08:50:47 PM 37.9240 -80.4440 86° East 477 549 33,000  Level FlightAware ADS-B
Wed 08:51:19 PM 37.9280 -80.3540 87° East 481 554 33,000  Level FlightAware ADS-B
Wed 08:51:57 PM 37.9330 -80.2490 87° East 486 559 33,000  Level FlightAware ADS-B
Wed 08:52:29 PM 37.9370 -80.1570 87° East 480 552 33,000  Level FlightAware ADS-B
Wed 08:53:05 PM 37.9420 -80.0570 86° East 473 544 33,000  Level FlightAware ADS-B
Wed 08:53:35 PM 37.9450 -79.9800 87° East 463 533 33,000  Level FlightAware ADS-B
Wed 08:54:16 PM 37.9510 -79.8630 86° East 467 537 33,000  Level FlightAware ADS-B
Wed 08:54:49 PM 37.9540 -79.7750 87° East 472 543 33,000  Level FlightAware ADS-B
Wed 08:55:25 PM 37.9590 -79.6730 86° East 480 552 33,000  Level FlightAware ADS-B
Wed 08:56:01 PM 37.9630 -79.5720 87° East 482 555 33,000  Level FlightAware ADS-B
Wed 08:56:30 PM 37.9660 -79.4940 87° East 480 552 33,000  Level FlightAware ADS-B
Wed 08:57:08 PM 37.9700 -79.4030 87° East 480 552 33,000  Level FlightAware ADS-B
Wed 08:57:45 PM 37.9740 -79.3150 87° East 480 552 33,000  Level FlightAware ADS-B
Wed 08:58:28 PM 37.9730 -79.1650 90° East 460 529 33,000  Level FlightAware ADS-B
Wed 08:59:00 PM 37.9800 -79.0790 84° East 463 533 33,000  Level FlightAware ADS-B
Wed 08:59:36 PM 37.9850 -78.9830 86° East 478 550 33,000  Level FlightAware ADS-B
Wed 09:00:14 PM 37.9900 -78.8740 87° East 492 566 33,000  Level FlightAware ADS-B
Wed 09:00:46 PM 37.9940 -78.7850 87° East 482 555 33,000  Level FlightAware ADS-B
Wed 09:01:22 PM 37.9970 -78.6830 88° East 490 564 33,000  Level FlightAware ADS-B
Wed 09:01:56 PM 38.0000 -78.5860 88° East 500 575 33,000  Level FlightAware ADS-B
Wed 09:02:32 PM 38.0040 -78.4780 87° East 499 574 33,000  Level FlightAware ADS-B
Wed 09:03:08 PM 38.0070 -78.3710 88° East 497 572 33,000  Level FlightAware ADS-B
Wed 09:03:41 PM 38.0100 -78.2760 88° East 498 573 33,000  Level FlightAware ADS-B
Wed 09:04:16 PM 38.0180 -78.1730 84° East 485 558 33,000  Level FlightAware ADS-B
Wed 09:04:52 PM 38.0500 -78.0810 66° East 469 540 33,000  Level FlightAware ADS-B
Wed 09:05:24 PM 38.0860 -78.0090 58° Northeast 472 543 33,000  Level FlightAware ADS-B
Wed 09:06:01 PM 38.1290 -77.9230 58° Northeast 476 548 33,000  Level FlightAware ADS-B
Wed 09:06:36 PM 38.1720 -77.8360 58° Northeast 477 549 33,000  Level FlightAware ADS-B
Wed 09:07:12 PM 38.2130 -77.7530 58° Northeast 479 551 33,000  Level FlightAware ADS-B
Wed 09:07:46 PM 38.2530 -77.6720 58° Northeast 480 552 33,000  Level FlightAware ADS-B
Wed 09:08:22 PM 38.2960 -77.5850 58° Northeast 480 552 33,000  Level FlightAware ADS-B
Wed 09:08:58 PM 38.3390 -77.4990 57° Northeast 479 551 33,000  Level FlightAware ADS-B
Wed 09:09:30 PM 38.3760 -77.4240 58° Northeast 477 549 33,000  Level FlightAware ADS-B
Wed 09:10:06 PM 38.4230 -77.3420 54° Northeast 471 542 33,000  Level FlightAware ADS-B
Wed 09:10:40 PM 38.4710 -77.2690 50° Northeast 470 541 33,000  Level FlightAware ADS-B
Wed 09:11:18 PM 38.5230 -77.1920 49° Northeast 472 543 33,000  Level FlightAware ADS-B
Wed 09:11:48 PM 38.5680 -77.1270 48° Northeast 470 541 33,000  Level FlightAware ADS-B
Wed 09:12:28 PM 38.6260 -77.0440 48° Northeast 470 541 33,000  Level FlightAware ADS-B
Wed 09:13:00 PM 38.6710 -76.9770 49° Northeast 470 541 33,000  Level FlightAware ADS-B
Wed 09:13:36 PM 38.7220 -76.9030 49° Northeast 469 540 33,000  Level FlightAware ADS-B
Wed 09:14:14 PM 38.7780 -76.8210 49° Northeast 470 541 33,000  Level FlightAware ADS-B
Wed 09:14:44 PM 38.8180 -76.7610 49° Northeast 470 541 33,000  Level FlightAware ADS-B
Wed 09:15:16 PM 38.8660 -76.6910 49° Northeast 469 540 33,000  Level FlightAware ADS-B
Wed 09:15:56 PM 38.9220 -76.6080 49° Northeast 470 541 33,000  Level FlightAware ADS-B
Wed 09:16:32 PM 38.9720 -76.5340 49° Northeast 469 540 33,000  Level FlightAware ADS-B
Wed 09:17:09 PM 39.0240 -76.4570 49° Northeast 469 540 33,000  Level FlightAware ADS-B
Wed 09:17:40 PM 39.0690 -76.3890 50° Northeast 470 541 33,000 -435 Level FlightAware ADS-B
Wed 09:18:18 PM 39.1230 -76.3100 49° Northeast 468 539 32,500 -1,457 Descending FlightAware ADS-B
Wed 09:18:50 PM 39.1670 -76.2430 50° Northeast 460 529 31,300 -2,824 Descending FlightAware ADS-B
Wed 09:19:26 PM 39.2150 -76.1720 49° Northeast 439 505 29,300 -3,167 Descending FlightAware ADS-B
Wed 09:20:02 PM 39.2650 -76.0980 49° Northeast 438 504 27,500 -2,824 Descending FlightAware ADS-B
Wed 09:20:34 PM 39.3120 -76.0400 44° Northeast 431 496 26,100 -2,000 Descending FlightAware ADS-B
Wed 09:21:11 PM 39.3660 -75.9770 42° Northeast 447 514 25,200 -1,250 Descending FlightAware ADS-B
Wed 09:21:46 PM 39.4210 -75.9110 43° Northeast 452 520 24,600 -986 Descending FlightAware ADS-B
Wed 09:22:24 PM 39.4780 -75.8450 42° Northeast 438 504 24,000 -882 Descending FlightAware ADS-B
Wed 09:22:54 PM 39.5240 -75.7910 42° Northeast 431 496 23,600 -909 Descending FlightAware ADS-B
Wed 09:23:30 PM 39.5760 -75.7280 43° Northeast 438 504 23,000 -1,099 Descending FlightAware ADS-B
Wed 09:24:05 PM 39.6270 -75.6680 42° Northeast 440 506 22,300 -1,200 Descending FlightAware ADS-B
Wed 09:24:40 PM 39.6820 -75.6030 42° Northeast 433 498 21,600 -1,800 Descending FlightAware ADS-B
Wed 09:25:15 PM 39.7330 -75.5410 43° Northeast 424 488 20,200 -2,417 Descending FlightAware ADS-B
Wed 09:25:52 PM 39.7850 -75.4780 43° Northeast 411 473 18,700 -2,282 Descending FlightAware ADS-B
Wed 09:26:26 PM 39.8320 -75.4210 43° Northeast 401 461 17,500 -2,149 Descending FlightAware ADS-B
Wed 09:26:59 PM 39.8760 -75.3680 43° Northeast 395 455 16,300 -2,229 Descending FlightAware ADS-B
Wed 09:27:36 PM 39.9250 -75.3090 43° Northeast 386 444 14,900 -2,197 Descending FlightAware ADS-B
Wed 09:28:10 PM 39.9690 -75.2550 43° Northeast 377 434 13,700 -2,250 Descending FlightAware ADS-B
Wed 09:28:48 PM 40.0160 -75.1990 42° Northeast 372 428 12,200 -2,000 Descending FlightAware ADS-B
Wed 09:29:22 PM 40.0590 -75.1460 43° Northeast 353 406 11,300 -845 Descending FlightAware ADS-B
Wed 09:29:59 PM 40.1000 -75.0940 44° Northeast 334 384 11,200 -171 Descending FlightAware ADS-B
Wed 09:30:32 PM 40.1370 -75.0500 42° Northeast 323 372 11,100 -783 Descending FlightAware ADS-B
Wed 09:31:08 PM 40.1750 -75.0040 43° Northeast 298 343 10,300 -1,286 Descending FlightAware ADS-B
Wed 09:31:28 PM 40.1950 -74.9790 44° Northeast 288 331 9,900 -1,371 Descending FlightAware ADS-B
Wed 09:31:43 PM 40.2100 -74.9610 43° Northeast 285 328 9,500 -1,355 Descending FlightAware ADS-B
Wed 09:31:59 PM 40.2260 -74.9410 44° Northeast 285 328 9,200 -1,200 Descending FlightAware ADS-B
Wed 09:32:23 PM 40.2480 -74.9140 43° Northeast 282 325 8,700 -1,304 Descending FlightAware ADS-B
Wed 09:32:45 PM 40.2680 -74.8860 47° Northeast 280 322 8,200 -1,050 Descending FlightAware ADS-B
Wed 09:33:03 PM 40.2840 -74.8650 45° Northeast 272 313 8,000 -150 Descending FlightAware ADS-B
Wed 09:33:25 PM 40.3030 -74.8380 47° Northeast 273 314 8,100 -136 Climbing FlightAware ADS-B
Wed 09:33:47 PM 40.3220 -74.8110 47° Northeast 276 318 7,900 -837 Descending FlightAware ADS-B
Wed 09:34:08 PM 40.3400 -74.7860 47° Northeast 274 315 7,500 -1,227 Descending FlightAware ADS-B
Wed 09:34:31 PM 40.3590 -74.7590 47° Northeast 271 312 7,000 -1,333 Descending FlightAware ADS-B
Wed 09:34:53 PM 40.3780 -74.7320 47° Northeast 268 308 6,500 -1,286 Descending FlightAware ADS-B
Wed 09:35:13 PM 40.3950 -74.7080 47° Northeast 267 307 6,100 -750 Descending FlightAware ADS-B
Wed 09:35:33 PM 40.4120 -74.6840 47° Northeast 270 311 6,000 -214 Descending FlightAware ADS-B
Wed 09:35:41 PM 40.4200 -74.6760 37° Northeast 274 315 6,000 300 Level FlightAware ADS-B
Wed 09:35:53 PM 40.4340 -74.6670 26° Northeast 279 321 6,100 300 Climbing FlightAware ADS-B
Wed 09:36:01 PM 40.4450 -74.6630 15° North 282 325 6,100 -214 Level FlightAware ADS-B
Wed 09:36:21 PM 40.4710 -74.6560 12° North 282 325 6,000  Descending FlightAware ADS-B
Wed 09:36:43 PM 40.4970 -74.6490 12° North 284 327 6,100  Climbing FlightAware ADS-B
Wed 09:37:02 PM 40.5220 -74.6430 10° North 282 325 6,000  Descending FlightAware ADS-B
Wed 09:37:27 PM 40.5540 -74.6340 12° North 282 325 6,100 133 Climbing FlightAware ADS-B
Wed 09:37:47 PM 40.5800 -74.6250 15° North 282 325 6,100  Level FlightAware ADS-B
Wed 09:38:07 PM 40.6050 -74.6160 15° North 281 323 6,100  Level FlightAware ADS-B
Wed 09:38:27 PM 40.6300 -74.6070 15° North 279 321 6,100  Level FlightAware ADS-B
Wed 09:38:43 PM 40.6490 -74.6000 16° North 278 320 6,100  Level FlightAware ADS-B
Wed 09:39:03 PM 40.6730 -74.5910 16° North 279 321 6,100  Level FlightAware ADS-B
Wed 09:39:24 PM 40.6990 -74.5820 15° North 280 322 6,100  Level FlightAware ADS-B
Wed 09:39:43 PM 40.7250 -74.5720 16° North 281 323 6,100 -308 Level FlightAware ADS-B
Wed 09:40:03 PM 40.7490 -74.5630 16° North 276 318 5,900 -955 Descending FlightAware ADS-B
Wed 09:40:27 PM 40.7780 -74.5520 16° North 271 312 5,400 -1,038 Descending FlightAware ADS-B
Wed 09:40:55 PM 40.8130 -74.5390 16° North 270 311 5,000 -375 Descending FlightAware ADS-B
Wed 09:41:15 PM 40.8360 -74.5300 16° North 270 311 5,100  Climbing FlightAware ADS-B
Wed 09:41:39 PM 40.8650 -74.5170 19° North 271 312 5,000  Descending FlightAware ADS-B
Wed 09:41:51 PM 40.8760 -74.5060 37° Northeast 269 310 5,100 316 Climbing FlightAware ADS-B
Wed 09:41:58 PM 40.8800 -74.4980 57° Northeast 269 310 5,100  Level FlightAware ADS-B
Wed 09:42:06 PM 40.8840 -74.4840 69° East 269 310 5,100 -194 Level FlightAware ADS-B
Wed 09:42:29 PM 40.8906 -74.4445 78° East 268 308 5,000 -154 Descending FlightAware ADS-B
Wed 09:42:45 PM 40.8952 -74.4193 76° East 268 308 5,000 182 Level FlightAware ADS-B
Wed 09:43:02 PM 40.9000 -74.3931 76° East 268 308 5,100 120 Climbing FlightAware ADS-B
Wed 09:43:35 PM 40.9100 -74.3410 76° East 268 308 5,100  Level FlightAware ADS-B
Wed 09:43:55 PM 40.9160 -74.3090 76° East 267 307 5,100  Level FlightAware ADS-B
Wed 09:44:19 PM 40.9220 -74.2750 77° East 267 307 5,100 -182 Level FlightAware ADS-B
Wed 09:44:28 PM 40.9253 -74.2561 77° East 263 303 5,000 -286 Descending FlightAware ADS-B
Wed 09:44:40 PM 40.9285 -74.2378 77° East 253 291 5,000  Level FlightAware ADS-B
Wed 09:44:44 PM 40.9291 -74.2321 82° East 249 287 5,000  Level FlightAware ADS-B
Wed 09:44:47 PM 40.9290 -74.2265 91° East 246 283 5,000  Level FlightAware ADS-B
Wed 09:44:51 PM 40.9285 -74.2216 98° East 244 281 5,000 -750 Level FlightAware ADS-B
Wed 09:44:55 PM 40.9271 -74.2153 106° East 242 278 4,900 -857 Descending FlightAware ADS-B
Wed 09:44:58 PM 40.9256 -74.2106 113° Southeast 241 277 4,900 -947 Level FlightAware ADS-B
Wed 09:45:14 PM 40.9174 -74.1906 118° Southeast 238 274 4,600 -968 Descending FlightAware ADS-B
Wed 09:45:29 PM 40.9097 -74.1711 118° Southeast 234 269 4,400 -724 Descending FlightAware ADS-B
Wed 09:46:12 PM 40.8901 -74.1192 117° Southeast 214 246 3,900 -700 Descending FlightAware ADS-B
Wed 09:46:29 PM 40.8814 -74.0997 121° Southeast 208 239 3,700 -857 Descending FlightAware ADS-B
Wed 09:46:33 PM 40.8788 -74.0964 136° Southeast 206 237 3,600 -1,333 Descending FlightAware ADS-B
Wed 09:46:38 PM 40.8753 -74.0934 147° Southeast 206 237 3,500 -667 Descending FlightAware ADS-B
Wed 09:46:42 PM 40.8717 -74.0914 157° South 204 235 3,500  Level FlightAware ADS-B
Wed 09:46:45 PM 40.8690 -74.0905 166° South 206 237 3,500 -1,000 Level FlightAware ADS-B
Wed 09:46:48 PM 40.8661 -74.0900 173° South 207 238 3,400 -750 Descending FlightAware ADS-B
Wed 09:46:53 PM 40.8612 -74.0895 176° South 207 238 3,400 -750 Level FlightAware ADS-B
Wed 09:47:04 PM 40.8501 -74.0892 179° South 210 242 3,200 -1,111 Descending FlightAware ADS-B
Wed 09:47:20 PM 40.8344 -74.0888 179° South 209 241 2,900 -1,111 Descending FlightAware ADS-B
Wed 09:47:31 PM 40.8242 -74.0885 179° South 207 238 2,700 -1,000 Descending FlightAware ADS-B
Wed 09:47:38 PM 40.8178 -74.0885 180° South 204 235 2,600 -1,091 Descending FlightAware ADS-B
Wed 09:47:42 PM 40.8138 -74.0891 186° South 203 234 2,500 -960 Descending FlightAware ADS-B
Wed 09:48:03 PM 40.7962 -74.0983 202° Southwest 199 229 2,200 -973 Descending FlightAware ADS-B
Wed 09:48:19 PM 40.7828 -74.1073 207° Southwest 196 226 1,900 -1,000 Descending FlightAware ADS-B
Wed 09:48:33 PM 40.7714 -74.1144 205° Southwest 191 220 1,700 -1,059 Descending FlightAware ADS-B
Wed 09:48:53 PM 40.7566 -74.1239 206° Southwest 182 209 1,300 -1,071 Descending FlightAware ADS-B
Wed 09:49:01 PM 40.7505 -74.1278 206° Southwest 166 191 1,200 -720 Descending FlightAware ADS-B
Wed 09:49:18 PM 40.7397 -74.1347 206° Southwest 154 177 1,000 -909 Descending FlightAware ADS-B
Wed 09:49:34 PM 40.7292 -74.1414 206° Southwest 153 176 700 -778 Descending FlightAware ADS-B
Wed 09:50:12 PM 40.7070 -74.1550 205° Southwest 150 173 300 -679 Descending FlightAware ADS-B
Wed 09:50:27 PM 40.6980 -74.1610 207° Southwest 149 171 100 -800 Descending FlightAware ADS-B
Wed 09:50:58 PM 40.6850 -74.1700 208° Southwest 86 99 -194 Descending FlightAware ADS-B

Login

Don't have an account? Register now (free) for customized features, flight alerts, and more!